sensor_id;sensor_type;location;lat;lon;timestamp;temperature;humidity
44763;DHT22;30483;49.576;6.036;2024-02-21T04:32:37;15.10;99.90
44763;DHT22;30483;49.576;6.036;2024-02-21T04:35:02;15.10;99.90
44763;DHT22;30483;49.576;6.036;2024-02-21T04:37:28;15.10;99.90
44763;DHT22;30483;49.576;6.036;2024-02-21T04:39:53;15.10;99.90
44763;DHT22;30483;49.576;6.036;2024-02-21T04:42:20;15.10;99.90
44763;DHT22;30483;49.576;6.036;2024-02-21T04:44:45;15.10;99.90
44763;DHT22;30483;49.576;6.036;2024-02-21T04:47:12;15.10;99.90
44763;DHT22;30483;49.576;6.036;2024-02-21T04:49:38;15.10;99.90
44763;DHT22;30483;49.576;6.036;2024-02-21T04:52:04;15.10;99.90
44763;DHT22;30483;49.576;6.036;2024-02-21T04:54:29;15.10;99.90
44763;DHT22;30483;49.576;6.036;2024-02-21T04:56:55;15.10;99.90
44763;DHT22;30483;49.576;6.036;2024-02-21T04:59:21;15.10;99.90
44763;DHT22;30483;49.576;6.036;2024-02-21T05:01:46;15.10;99.90
44763;DHT22;30483;49.576;6.036;2024-02-21T05:04:12;15.10;99.90
44763;DHT22;30483;49.576;6.036;2024-02-21T05:06:38;15.10;99.90
44763;DHT22;30483;49.576;6.036;2024-02-21T05:09:04;15.10;99.90
44763;DHT22;30483;49.576;6.036;2024-02-21T05:11:30;15.10;99.90
44763;DHT22;30483;49.576;6.036;2024-02-21T05:13:57;15.10;99.90
44763;DHT22;30483;49.576;6.036;2024-02-21T05:16:22;15.10;99.90
44763;DHT22;30483;49.576;6.036;2024-02-21T05:18:48;15.10;99.90
44763;DHT22;30483;49.576;6.036;2024-02-21T05:21:14;15.10;99.90
44763;DHT22;30483;49.576;6.036;2024-02-21T05:23:39;15.10;99.90
44763;DHT22;30483;49.576;6.036;2024-02-21T05:26:05;15.10;99.90
44763;DHT22;30483;49.576;6.036;2024-02-21T05:28:31;15.10;99.90
44763;DHT22;30483;49.576;6.036;2024-02-21T05:30:57;15.10;99.90
44763;DHT22;30483;49.576;6.036;2024-02-21T05:33:22;15.10;99.90
44763;DHT22;30483;49.576;6.036;2024-02-21T05:35:48;15.10;99.90
44763;DHT22;30483;49.576;6.036;2024-02-21T05:38:14;15.10;99.90
44763;DHT22;30483;49.576;6.036;2024-02-21T05:40:40;15.10;99.90
44763;DHT22;30483;49.576;6.036;2024-02-21T05:43:07;15.10;99.90
44763;DHT22;30483;49.576;6.036;2024-02-21T05:45:33;15.10;99.90
44763;DHT22;30483;49.576;6.036;2024-02-21T05:47:59;15.10;99.90
44763;DHT22;30483;49.576;6.036;2024-02-21T05:50:25;15.10;99.90
44763;DHT22;30483;49.576;6.036;2024-02-21T05:52:53;15.10;99.90
44763;DHT22;30483;49.576;6.036;2024-02-21T05:55:19;15.10;99.90
44763;DHT22;30483;49.576;6.036;2024-02-21T05:57:45;15.10;99.90
44763;DHT22;30483;49.576;6.036;2024-02-21T06:00:11;15.10;99.90
44763;DHT22;30483;49.576;6.036;2024-02-21T06:02:36;15.10;99.90
44763;DHT22;30483;49.576;6.036;2024-02-21T06:05:02;15.10;99.90
44763;DHT22;30483;49.576;6.036;2024-02-21T06:07:28;15.10;99.90
44763;DHT22;30483;49.576;6.036;2024-02-21T06:09:53;15.10;99.90
44763;DHT22;30483;49.576;6.036;2024-02-21T06:12:19;15.10;99.90
44763;DHT22;30483;49.576;6.036;2024-02-21T06:14:45;15.10;99.90
44763;DHT22;30483;49.576;6.036;2024-02-21T06:17:10;15.10;99.90
44763;DHT22;30483;49.576;6.036;2024-02-21T06:19:40;15.10;99.90
44763;DHT22;30483;49.576;6.036;2024-02-21T06:22:06;15.10;99.90
44763;DHT22;30483;49.576;6.036;2024-02-21T06:24:33;15.10;99.90
44763;DHT22;30483;49.576;6.036;2024-02-21T06:26:59;15.10;99.90
44763;DHT22;30483;49.576;6.036;2024-02-21T06:29:25;15.10;99.90
44763;DHT22;30483;49.576;6.036;2024-02-21T06:31:50;15.10;99.90
44763;DHT22;30483;49.576;6.036;2024-02-21T06:34:16;15.10;99.90
44763;DHT22;30483;49.576;6.036;2024-02-21T06:36:42;15.10;99.90
44763;DHT22;30483;49.576;6.036;2024-02-21T06:39:07;15.10;99.90
44763;DHT22;30483;49.576;6.036;2024-02-21T06:41:33;15.10;99.90
44763;DHT22;30483;49.576;6.036;2024-02-21T06:43:59;15.10;99.90
44763;DHT22;30483;49.576;6.036;2024-02-21T06:46:29;15.10;99.90
44763;DHT22;30483;49.576;6.036;2024-02-21T06:48:55;15.10;99.90
44763;DHT22;30483;49.576;6.036;2024-02-21T06:51:25;15.10;99.90
44763;DHT22;30483;49.576;6.036;2024-02-21T06:53:51;15.10;99.90
44763;DHT22;30483;49.576;6.036;2024-02-21T06:56:16;14.90;99.90
44763;DHT22;30483;49.576;6.036;2024-02-21T06:58:42;14.70;99.90
44763;DHT22;30483;49.576;6.036;2024-02-21T07:01:08;14.60;99.90
44763;DHT22;30483;49.576;6.036;2024-02-21T07:03:34;14.60;99.90
44763;DHT22;30483;49.576;6.036;2024-02-21T07:05:59;14.70;99.90
44763;DHT22;30483;49.576;6.036;2024-02-21T07:08:25;14.70;99.90
44763;DHT22;30483;49.576;6.036;2024-02-21T07:10:51;14.80;99.90
44763;DHT22;30483;49.576;6.036;2024-02-21T07:13:17;14.80;99.90
44763;DHT22;30483;49.576;6.036;2024-02-21T07:15:43;14.80;99.90
44763;DHT22;30483;49.576;6.036;2024-02-21T07:18:08;14.80;99.90
44763;DHT22;30483;49.576;6.036;2024-02-21T07:20:34;14.90;99.90
44763;DHT22;30483;49.576;6.036;2024-02-21T07:23:02;14.90;99.90
44763;DHT22;30483;49.576;6.036;2024-02-21T07:25:28;14.90;99.90
44763;DHT22;30483;49.576;6.036;2024-02-21T07:27:53;14.70;99.90
44763;DHT22;30483;49.576;6.036;2024-02-21T07:30:19;14.70;99.90
44763;DHT22;30483;49.576;6.036;2024-02-21T07:32:45;14.70;99.90
44763;DHT22;30483;49.576;6.036;2024-02-21T07:35:10;14.80;99.90
44763;DHT22;30483;49.576;6.036;2024-02-21T07:37:37;14.80;99.90
44763;DHT22;30483;49.576;6.036;2024-02-21T07:40:05;14.90;99.90
44763;DHT22;30483;49.576;6.036;2024-02-21T07:42:31;14.90;99.90
44763;DHT22;30483;49.576;6.036;2024-02-21T07:44:57;15.00;99.90
44763;DHT22;30483;49.576;6.036;2024-02-21T07:47:22;15.00;99.90
44763;DHT22;30483;49.576;6.036;2024-02-21T07:49:48;15.10;99.90
44763;DHT22;30483;49.576;6.036;2024-02-21T07:52:14;15.10;99.90
44763;DHT22;30483;49.576;6.036;2024-02-21T07:54:40;15.20;99.90
44763;DHT22;30483;49.576;6.036;2024-02-21T07:57:07;15.20;99.90
44763;DHT22;30483;49.576;6.036;2024-02-21T07:59:32;15.20;99.90
44763;DHT22;30483;49.576;6.036;2024-02-21T08:01:58;15.20;99.90
44763;DHT22;30483;49.576;6.036;2024-02-21T08:04:24;15.30;99.90
44763;DHT22;30483;49.576;6.036;2024-02-21T08:06:56;15.30;99.90
44763;DHT22;30483;49.576;6.036;2024-02-21T08:09:24;15.30;99.90
44763;DHT22;30483;49.576;6.036;2024-02-21T08:11:50;15.30;99.90
44763;DHT22;30483;49.576;6.036;2024-02-21T08:14:15;15.30;99.90
44763;DHT22;30483;49.576;6.036;2024-02-21T08:16:42;15.30;99.90
44763;DHT22;30483;49.576;6.036;2024-02-21T08:19:08;15.30;99.90
44763;DHT22;30483;49.576;6.036;2024-02-21T08:21:33;15.40;99.90
44763;DHT22;30483;49.576;6.036;2024-02-21T08:23:59;15.40;99.90
44763;DHT22;30483;49.576;6.036;2024-02-21T08:26:25;15.40;99.90
44763;DHT22;30483;49.576;6.036;2024-02-21T08:28:53;15.40;99.90
44763;DHT22;30483;49.576;6.036;2024-02-21T08:31:19;15.40;99.90
44763;DHT22;30483;49.576;6.036;2024-02-21T08:33:45;15.40;99.90
44763;DHT22;30483;49.576;6.036;2024-02-21T08:36:18;15.40;99.90
44763;DHT22;30483;49.576;6.036;2024-02-21T08:38:44;15.40;99.90
44763;DHT22;30483;49.576;6.036;2024-02-21T08:41:10;15.40;99.90
44763;DHT22;30483;49.576;6.036;2024-02-21T08:43:36;15.40;99.90
44763;DHT22;30483;49.576;6.036;2024-02-21T08:46:02;15.40;99.90
44763;DHT22;30483;49.576;6.036;2024-02-21T08:48:27;15.40;99.90
44763;DHT22;30483;49.576;6.036;2024-02-21T08:50:53;15.40;99.90
44763;DHT22;30483;49.576;6.036;2024-02-21T08:53:20;15.40;99.90
44763;DHT22;30483;49.576;6.036;2024-02-21T08:55:45;15.40;99.90
44763;DHT22;30483;49.576;6.036;2024-02-21T08:58:11;15.40;99.90
44763;DHT22;30483;49.576;6.036;2024-02-21T09:00:37;15.40;99.90
44763;DHT22;30483;49.576;6.036;2024-02-21T09:03:03;15.40;99.90
44763;DHT22;30483;49.576;6.036;2024-02-21T09:05:29;15.40;99.90
44763;DHT22;30483;49.576;6.036;2024-02-21T09:07:54;15.40;99.90
44763;DHT22;30483;49.576;6.036;2024-02-21T09:10:21;15.40;99.90
44763;DHT22;30483;49.576;6.036;2024-02-21T09:12:46;15.40;99.90
44763;DHT22;30483;49.576;6.036;2024-02-21T09:15:13;15.40;99.90
44763;DHT22;30483;49.576;6.036;2024-02-21T09:17:39;15.40;99.90
44763;DHT22;30483;49.576;6.036;2024-02-21T09:20:05;15.40;99.90
44763;DHT22;30483;49.576;6.036;2024-02-21T09:22:32;15.40;99.90
44763;DHT22;30483;49.576;6.036;2024-02-21T09:25:00;15.40;99.90
44763;DHT22;30483;49.576;6.036;2024-02-21T09:27:25;15.40;99.90
44763;DHT22;30483;49.576;6.036;2024-02-21T09:29:51;15.40;99.90
44763;DHT22;30483;49.576;6.036;2024-02-21T09:32:18;15.50;99.90
44763;DHT22;30483;49.576;6.036;2024-02-21T09:34:44;15.40;99.90
44763;DHT22;30483;49.576;6.036;2024-02-21T09:37:10;15.50;99.90
44763;DHT22;30483;49.576;6.036;2024-02-21T09:39:36;15.40;99.90
44763;DHT22;30483;49.576;6.036;2024-02-21T09:42:06;15.40;99.90
44763;DHT22;30483;49.576;6.036;2024-02-21T09:44:37;15.40;99.90
44763;DHT22;30483;49.576;6.036;2024-02-21T09:47:07;15.40;99.90
44763;DHT22;30483;49.576;6.036;2024-02-21T09:49:35;15.40;99.90
44763;DHT22;30483;49.576;6.036;2024-02-21T09:52:05;15.40;99.90
44763;DHT22;30483;49.576;6.036;2024-02-21T09:54:33;15.40;99.90
44763;DHT22;30483;49.576;6.036;2024-02-21T09:57:03;15.10;99.90
44763;DHT22;30483;49.576;6.036;2024-02-21T09:59:30;14.80;99.90
44763;DHT22;30483;49.576;6.036;2024-02-21T10:01:56;14.80;99.90
44763;DHT22;30483;49.576;6.036;2024-02-21T10:04:23;14.80;99.90
44763;DHT22;30483;49.576;6.036;2024-02-21T10:06:49;14.90;99.90
44763;DHT22;30483;49.576;6.036;2024-02-21T10:09:28;14.90;99.90
44763;DHT22;30483;49.576;6.036;2024-02-21T10:11:55;15.00;99.90
44763;DHT22;30483;49.576;6.036;2024-02-21T10:14:20;15.10;99.90
44763;DHT22;30483;49.576;6.036;2024-02-21T10:16:48;14.90;99.90
44763;DHT22;30483;49.576;6.036;2024-02-21T10:19:20;14.80;99.90
44763;DHT22;30483;49.576;6.036;2024-02-21T10:22:00;14.80;99.90
44763;DHT22;30483;49.576;6.036;2024-02-21T10:24:27;14.80;99.90
44763;DHT22;30483;49.576;6.036;2024-02-21T10:27:06;14.80;99.90
44763;DHT22;30483;49.576;6.036;2024-02-21T10:29:39;14.90;99.90
44763;DHT22;30483;49.576;6.036;2024-02-21T10:32:09;14.90;99.90
44763;DHT22;30483;49.576;6.036;2024-02-21T10:34:36;14.90;99.90
44763;DHT22;30483;49.576;6.036;2024-02-21T10:37:06;14.90;99.90
44763;DHT22;30483;49.576;6.036;2024-02-21T10:39:32;15.00;99.90
44763;DHT22;30483;49.576;6.036;2024-02-21T10:42:00;15.00;99.90
44763;DHT22;30483;49.576;6.036;2024-02-21T10:44:32;15.00;99.90
44763;DHT22;30483;49.576;6.036;2024-02-21T10:46:58;15.00;99.90
44763;DHT22;30483;49.576;6.036;2024-02-21T10:49:25;15.00;99.90
44763;DHT22;30483;49.576;6.036;2024-02-21T10:51:55;15.00;99.90
44763;DHT22;30483;49.576;6.036;2024-02-21T10:56:57;15.00;99.90
44763;DHT22;30483;49.576;6.036;2024-02-21T10:59:24;15.00;99.90
44763;DHT22;30483;49.576;6.036;2024-02-21T11:01:51;15.00;99.90
44763;DHT22;30483;49.576;6.036;2024-02-21T11:04:17;15.00;99.90
44763;DHT22;30483;49.576;6.036;2024-02-21T11:06:43;15.00;99.90
44763;DHT22;30483;49.576;6.036;2024-02-21T11:09:10;15.00;99.90
44763;DHT22;30483;49.576;6.036;2024-02-21T11:11:37;15.00;99.90
44763;DHT22;30483;49.576;6.036;2024-02-21T11:14:10;15.00;99.90
44763;DHT22;30483;49.576;6.036;2024-02-21T11:16:45;15.00;99.90
44763;DHT22;30483;49.576;6.036;2024-02-21T11:19:21;15.00;99.90
44763;DHT22;30483;49.576;6.036;2024-02-21T11:21:47;15.00;99.90
44763;DHT22;30483;49.576;6.036;2024-02-21T11:24:32;15.10;99.90
44763;DHT22;30483;49.576;6.036;2024-02-21T11:27:14;15.10;99.90
44763;DHT22;30483;49.576;6.036;2024-02-21T11:29:46;15.10;99.90
44763;DHT22;30483;49.576;6.036;2024-02-21T11:32:14;15.20;99.90
44763;DHT22;30483;49.576;6.036;2024-02-21T11:34:41;15.30;99.90
44763;DHT22;30483;49.576;6.036;2024-02-21T11:37:16;15.20;99.90
44763;DHT22;30483;49.576;6.036;2024-02-21T11:39:41;15.00;99.90
44763;DHT22;30483;49.576;6.036;2024-02-21T11:42:08;15.00;99.90
44763;DHT22;30483;49.576;6.036;2024-02-21T11:44:35;15.00;99.90
44763;DHT22;30483;49.576;6.036;2024-02-21T11:47:03;15.00;99.90
44763;DHT22;30483;49.576;6.036;2024-02-21T11:49:30;15.00;99.90
44763;DHT22;30483;49.576;6.036;2024-02-21T11:52:03;15.00;99.90
44763;DHT22;30483;49.576;6.036;2024-02-21T11:54:31;15.00;99.90
44763;DHT22;30483;49.576;6.036;2024-02-21T11:56:57;15.00;99.90
44763;DHT22;30483;49.576;6.036;2024-02-21T11:59:23;15.00;99.90
44763;DHT22;30483;49.576;6.036;2024-02-21T12:01:49;14.90;99.90
44763;DHT22;30483;49.576;6.036;2024-02-21T12:04:17;15.00;99.90
44763;DHT22;30483;49.576;6.036;2024-02-21T12:06:45;15.00;99.90
44763;DHT22;30483;49.576;6.036;2024-02-21T12:09:14;15.00;99.90
44763;DHT22;30483;49.576;6.036;2024-02-21T12:11:40;15.00;99.90
44763;DHT22;30483;49.576;6.036;2024-02-21T12:14:06;15.00;99.90
44763;DHT22;30483;49.576;6.036;2024-02-21T12:16:32;15.00;99.90
44763;DHT22;30483;49.576;6.036;2024-02-21T12:19:01;15.00;99.90
44763;DHT22;30483;49.576;6.036;2024-02-21T12:21:33;15.00;99.90
44763;DHT22;30483;49.576;6.036;2024-02-21T12:24:14;15.00;99.90
44763;DHT22;30483;49.576;6.036;2024-02-21T12:26:40;14.90;99.90
44763;DHT22;30483;49.576;6.036;2024-02-21T12:29:07;15.00;99.90
44763;DHT22;30483;49.576;6.036;2024-02-21T12:31:36;14.90;99.90
44763;DHT22;30483;49.576;6.036;2024-02-21T12:34:02;15.00;99.90
44763;DHT22;30483;49.576;6.036;2024-02-21T12:36:27;15.00;99.90
44763;DHT22;30483;49.576;6.036;2024-02-21T12:38:53;15.00;99.90
44763;DHT22;30483;49.576;6.036;2024-02-21T12:41:18;15.00;99.90
44763;DHT22;30483;49.576;6.036;2024-02-21T12:43:44;15.00;99.90
44763;DHT22;30483;49.576;6.036;2024-02-21T12:46:09;15.00;99.90
44763;DHT22;30483;49.576;6.036;2024-02-21T12:48:35;15.00;99.90
44763;DHT22;30483;49.576;6.036;2024-02-21T12:51:01;15.00;99.90
44763;DHT22;30483;49.576;6.036;2024-02-21T12:53:26;15.00;99.90
44763;DHT22;30483;49.576;6.036;2024-02-21T12:55:52;15.00;99.90
44763;DHT22;30483;49.576;6.036;2024-02-21T12:58:18;14.90;99.90
44763;DHT22;30483;49.576;6.036;2024-02-21T13:00:44;15.00;99.90
44763;DHT22;30483;49.576;6.036;2024-02-21T13:03:10;14.90;99.90
44763;DHT22;30483;49.576;6.036;2024-02-21T13:05:36;15.00;99.90
44763;DHT22;30483;49.576;6.036;2024-02-21T13:08:02;15.00;99.90
44763;DHT22;30483;49.576;6.036;2024-02-21T13:10:28;15.00;99.90
44763;DHT22;30483;49.576;6.036;2024-02-21T13:12:53;15.00;99.90
44763;DHT22;30483;49.576;6.036;2024-02-21T13:15:19;15.00;99.90
44763;DHT22;30483;49.576;6.036;2024-02-21T13:17:45;15.00;99.90
44763;DHT22;30483;49.576;6.036;2024-02-21T13:20:11;15.00;99.90
44763;DHT22;30483;49.576;6.036;2024-02-21T13:22:37;15.00;99.90
44763;DHT22;30483;49.576;6.036;2024-02-21T13:25:04;15.00;99.90
44763;DHT22;30483;49.576;6.036;2024-02-21T13:27:30;15.00;99.90
44763;DHT22;30483;49.576;6.036;2024-02-21T13:29:55;15.00;99.90
44763;DHT22;30483;49.576;6.036;2024-02-21T13:32:21;14.90;99.90
44763;DHT22;30483;49.576;6.036;2024-02-21T13:34:46;15.00;99.90
44763;DHT22;30483;49.576;6.036;2024-02-21T13:37:12;14.90;99.90
44763;DHT22;30483;49.576;6.036;2024-02-21T13:39:39;15.00;99.90
44763;DHT22;30483;49.576;6.036;2024-02-21T13:42:05;14.90;99.90
44763;DHT22;30483;49.576;6.036;2024-02-21T13:44:31;14.90;99.90
44763;DHT22;30483;49.576;6.036;2024-02-21T13:46:57;15.00;99.90
44763;DHT22;30483;49.576;6.036;2024-02-21T13:49:23;14.90;99.90
44763;DHT22;30483;49.576;6.036;2024-02-21T13:51:48;15.00;99.90
44763;DHT22;30483;49.576;6.036;2024-02-21T13:54:14;14.90;99.90
44763;DHT22;30483;49.576;6.036;2024-02-21T13:56:45;15.00;99.90
44763;DHT22;30483;49.576;6.036;2024-02-21T13:59:12;15.00;99.90
44763;DHT22;30483;49.576;6.036;2024-02-21T14:01:38;14.90;99.90
44763;DHT22;30483;49.576;6.036;2024-02-21T14:04:04;14.90;99.90
44763;DHT22;30483;49.576;6.036;2024-02-21T14:06:30;15.00;99.90
44763;DHT22;30483;49.576;6.036;2024-02-21T14:08:55;15.00;99.90
44763;DHT22;30483;49.576;6.036;2024-02-21T14:11:21;14.90;99.90
44763;DHT22;30483;49.576;6.036;2024-02-21T14:13:46;14.90;99.90
44763;DHT22;30483;49.576;6.036;2024-02-21T14:16:12;14.90;99.90
44763;DHT22;30483;49.576;6.036;2024-02-21T14:18:39;15.00;99.90
44763;DHT22;30483;49.576;6.036;2024-02-21T14:21:07;15.00;99.90
44763;DHT22;30483;49.576;6.036;2024-02-21T14:23:32;15.00;99.90
44763;DHT22;30483;49.576;6.036;2024-02-21T14:25:59;14.90;99.90
44763;DHT22;30483;49.576;6.036;2024-02-21T14:28:24;14.90;99.90
44763;DHT22;30483;49.576;6.036;2024-02-21T14:30:50;15.00;99.90
44763;DHT22;30483;49.576;6.036;2024-02-21T14:33:19;15.00;99.90
44763;DHT22;30483;49.576;6.036;2024-02-21T14:35:44;15.00;99.90
44763;DHT22;30483;49.576;6.036;2024-02-21T14:38:10;15.00;99.90
44763;DHT22;30483;49.576;6.036;2024-02-21T14:40:36;15.00;99.90
44763;DHT22;30483;49.576;6.036;2024-02-21T14:43:01;15.00;99.90
44763;DHT22;30483;49.576;6.036;2024-02-21T14:45:27;14.90;99.90
44763;DHT22;30483;49.576;6.036;2024-02-21T14:47:52;14.90;99.90
44763;DHT22;30483;49.576;6.036;2024-02-21T14:50:18;14.90;99.90
44763;DHT22;30483;49.576;6.036;2024-02-21T14:52:44;14.90;99.90
44763;DHT22;30483;49.576;6.036;2024-02-21T14:55:09;14.90;99.90
44763;DHT22;30483;49.576;6.036;2024-02-21T14:57:35;14.90;99.90
44763;DHT22;30483;49.576;6.036;2024-02-21T15:00:02;14.90;99.90
44763;DHT22;30483;49.576;6.036;2024-02-21T15:02:28;15.00;99.90
44763;DHT22;30483;49.576;6.036;2024-02-21T15:04:54;15.00;99.90
44763;DHT22;30483;49.576;6.036;2024-02-21T15:07:20;14.90;99.90
44763;DHT22;30483;49.576;6.036;2024-02-21T15:09:49;14.90;99.90
44763;DHT22;30483;49.576;6.036;2024-02-21T15:12:15;14.80;99.90
44763;DHT22;30483;49.576;6.036;2024-02-21T15:14:41;14.80;99.90
44763;DHT22;30483;49.576;6.036;2024-02-21T15:17:10;14.90;99.90
44763;DHT22;30483;49.576;6.036;2024-02-21T15:19:36;15.00;99.90
44763;DHT22;30483;49.576;6.036;2024-02-21T15:22:04;15.00;99.90
44763;DHT22;30483;49.576;6.036;2024-02-21T15:24:30;15.00;99.90
44763;DHT22;30483;49.576;6.036;2024-02-21T15:26:55;15.00;99.90
44763;DHT22;30483;49.576;6.036;2024-02-21T15:29:21;15.00;99.90
44763;DHT22;30483;49.576;6.036;2024-02-21T15:31:48;15.00;99.90
44763;DHT22;30483;49.576;6.036;2024-02-21T15:34:14;15.00;99.90
44763;DHT22;30483;49.576;6.036;2024-02-21T15:36:43;14.80;99.90
44763;DHT22;30483;49.576;6.036;2024-02-21T15:44:02;14.50;99.90
44763;DHT22;30483;49.576;6.036;2024-02-21T15:46:29;13.00;99.90
44763;DHT22;30483;49.576;6.036;2024-02-21T15:48:56;12.70;99.90
44763;DHT22;30483;49.576;6.036;2024-02-21T15:51:22;12.60;99.90
44763;DHT22;30483;49.576;6.036;2024-02-21T15:53:48;12.50;99.90
44763;DHT22;30483;49.576;6.036;2024-02-21T15:56:14;12.40;99.90
44763;DHT22;30483;49.576;6.036;2024-02-21T15:58:41;12.30;99.90
44763;DHT22;30483;49.576;6.036;2024-02-21T16:01:07;12.30;99.90
44763;DHT22;30483;49.576;6.036;2024-02-21T16:05:58;12.40;99.90
44763;DHT22;30483;49.576;6.036;2024-02-21T16:08:24;13.20;99.90
44763;DHT22;30483;49.576;6.036;2024-02-21T16:10:50;13.30;99.90
44763;DHT22;30483;49.576;6.036;2024-02-21T16:13:16;13.50;99.90
44763;DHT22;30483;49.576;6.036;2024-02-21T16:40:13;13.70;99.90
44763;DHT22;30483;49.576;6.036;2024-02-21T16:42:40;15.40;99.90
44763;DHT22;30483;49.576;6.036;2024-02-21T16:45:06;15.50;99.90
44763;DHT22;30483;49.576;6.036;2024-02-21T16:47:33;15.50;99.90
44763;DHT22;30483;49.576;6.036;2024-02-21T16:50:00;15.50;99.90
44763;DHT22;30483;49.576;6.036;2024-02-21T16:52:25;15.60;99.90
44763;DHT22;30483;49.576;6.036;2024-02-21T16:54:52;15.50;99.90
44763;DHT22;30483;49.576;6.036;2024-02-21T16:57:17;15.50;99.90
44763;DHT22;30483;49.576;6.036;2024-02-21T16:59:45;15.50;99.90
44763;DHT22;30483;49.576;6.036;2024-02-21T17:02:13;15.60;99.90
44763;DHT22;30483;49.576;6.036;2024-02-21T17:04:38;15.60;99.90
44763;DHT22;30483;49.576;6.036;2024-02-21T17:07:04;15.60;99.90
44763;DHT22;30483;49.576;6.036;2024-02-21T17:09:29;15.60;99.90
44763;DHT22;30483;49.576;6.036;2024-02-21T17:11:56;15.70;99.90
44763;DHT22;30483;49.576;6.036;2024-02-21T17:14:23;15.70;99.90
44763;DHT22;30483;49.576;6.036;2024-02-21T17:16:50;15.70;99.90
44763;DHT22;30483;49.576;6.036;2024-02-21T17:19:15;15.70;99.90
44763;DHT22;30483;49.576;6.036;2024-02-21T17:21:41;15.70;99.90
44763;DHT22;30483;49.576;6.036;2024-02-21T17:24:07;15.70;99.90
44763;DHT22;30483;49.576;6.036;2024-02-21T17:26:33;15.70;99.90
44763;DHT22;30483;49.576;6.036;2024-02-21T17:28:59;15.70;99.90
44763;DHT22;30483;49.576;6.036;2024-02-21T17:31:26;15.70;99.90
44763;DHT22;30483;49.576;6.036;2024-02-21T17:33:53;15.70;99.90
44763;DHT22;30483;49.576;6.036;2024-02-21T17:36:19;15.60;99.90
44763;DHT22;30483;49.576;6.036;2024-02-21T17:38:45;15.60;99.90
44763;DHT22;30483;49.576;6.036;2024-02-21T17:41:12;15.60;99.90
44763;DHT22;30483;49.576;6.036;2024-02-21T17:43:38;15.60;99.90
44763;DHT22;30483;49.576;6.036;2024-02-21T17:46:03;15.60;99.90
44763;DHT22;30483;49.576;6.036;2024-02-21T17:48:29;15.60;99.90
44763;DHT22;30483;49.576;6.036;2024-02-21T17:50:55;15.60;99.90
44763;DHT22;30483;49.576;6.036;2024-02-21T17:53:21;15.60;99.90
44763;DHT22;30483;49.576;6.036;2024-02-21T17:55:46;15.60;99.90
44763;DHT22;30483;49.576;6.036;2024-02-21T17:58:12;15.60;99.90
44763;DHT22;30483;49.576;6.036;2024-02-21T18:00:37;15.60;99.90
44763;DHT22;30483;49.576;6.036;2024-02-21T18:03:09;15.50;99.90
44763;DHT22;30483;49.576;6.036;2024-02-21T18:05:36;15.50;99.90
44763;DHT22;30483;49.576;6.036;2024-02-21T18:08:02;15.50;99.90
44763;DHT22;30483;49.576;6.036;2024-02-21T18:10:27;15.50;99.90
44763;DHT22;30483;49.576;6.036;2024-02-21T18:12:59;15.50;99.90
44763;DHT22;30483;49.576;6.036;2024-02-21T18:15:31;15.50;99.90
44763;DHT22;30483;49.576;6.036;2024-02-21T18:17:59;15.40;99.90
44763;DHT22;30483;49.576;6.036;2024-02-21T18:20:25;15.40;99.90
44763;DHT22;30483;49.576;6.036;2024-02-21T18:22:50;15.40;99.90
44763;DHT22;30483;49.576;6.036;2024-02-21T18:25:19;15.40;99.90
44763;DHT22;30483;49.576;6.036;2024-02-21T18:27:45;15.40;99.90
44763;DHT22;30483;49.576;6.036;2024-02-21T18:30:24;15.30;99.90
44763;DHT22;30483;49.576;6.036;2024-02-21T18:32:50;15.30;99.90
44763;DHT22;30483;49.576;6.036;2024-02-21T18:35:16;15.30;99.90
44763;DHT22;30483;49.576;6.036;2024-02-21T18:37:44;15.20;99.90
44763;DHT22;30483;49.576;6.036;2024-02-21T18:40:12;15.20;99.90
44763;DHT22;30483;49.576;6.036;2024-02-21T18:42:39;15.20;99.90
44763;DHT22;30483;49.576;6.036;2024-02-21T18:45:06;15.20;99.90
44763;DHT22;30483;49.576;6.036;2024-02-21T18:47:32;15.10;99.90
44763;DHT22;30483;49.576;6.036;2024-02-21T18:50:01;15.10;99.90
44763;DHT22;30483;49.576;6.036;2024-02-21T18:52:26;15.10;99.90
44763;DHT22;30483;49.576;6.036;2024-02-21T18:54:52;15.10;99.90
44763;DHT22;30483;49.576;6.036;2024-02-21T18:57:18;15.10;99.90
44763;DHT22;30483;49.576;6.036;2024-02-21T18:59:44;15.10;99.90
44763;DHT22;30483;49.576;6.036;2024-02-21T19:02:09;15.00;99.90
44763;DHT22;30483;49.576;6.036;2024-02-21T19:04:35;15.00;99.90
44763;DHT22;30483;49.576;6.036;2024-02-21T19:07:03;15.00;99.90
44763;DHT22;30483;49.576;6.036;2024-02-21T19:09:28;15.00;99.90
44763;DHT22;30483;49.576;6.036;2024-02-21T19:11:54;15.00;99.90
44763;DHT22;30483;49.576;6.036;2024-02-21T19:14:20;15.00;99.90
44763;DHT22;30483;49.576;6.036;2024-02-21T19:16:46;15.00;99.90
44763;DHT22;30483;49.576;6.036;2024-02-21T19:19:31;14.90;99.90
44763;DHT22;30483;49.576;6.036;2024-02-21T19:21:59;14.90;99.90
44763;DHT22;30483;49.576;6.036;2024-02-21T19:24:25;14.90;99.90
44763;DHT22;30483;49.576;6.036;2024-02-21T19:27:01;14.90;99.90
44763;DHT22;30483;49.576;6.036;2024-02-21T19:29:28;14.90;99.90
44763;DHT22;30483;49.576;6.036;2024-02-21T19:31:53;14.90;99.90
44763;DHT22;30483;49.576;6.036;2024-02-21T19:34:19;14.80;99.90
44763;DHT22;30483;49.576;6.036;2024-02-21T19:36:46;14.80;99.90
44763;DHT22;30483;49.576;6.036;2024-02-21T19:39:11;14.80;99.90
44763;DHT22;30483;49.576;6.036;2024-02-21T19:41:37;14.80;99.90
44763;DHT22;30483;49.576;6.036;2024-02-21T19:44:04;14.80;99.90
44763;DHT22;30483;49.576;6.036;2024-02-21T19:46:29;14.70;99.90
44763;DHT22;30483;49.576;6.036;2024-02-21T19:48:55;14.70;99.90
44763;DHT22;30483;49.576;6.036;2024-02-21T19:51:21;14.70;99.90
44763;DHT22;30483;49.576;6.036;2024-02-21T19:53:50;14.70;99.90
44763;DHT22;30483;49.576;6.036;2024-02-21T19:56:16;14.70;99.90
44763;DHT22;30483;49.576;6.036;2024-02-21T19:58:42;14.70;99.90
44763;DHT22;30483;49.576;6.036;2024-02-21T20:01:07;14.70;99.90
44763;DHT22;30483;49.576;6.036;2024-02-21T20:03:33;14.70;99.90
44763;DHT22;30483;49.576;6.036;2024-02-21T20:05:58;14.70;99.90
44763;DHT22;30483;49.576;6.036;2024-02-21T20:08:24;14.70;99.90
44763;DHT22;30483;49.576;6.036;2024-02-21T20:10:50;14.70;99.90
44763;DHT22;30483;49.576;6.036;2024-02-21T20:13:16;14.70;99.90
44763;DHT22;30483;49.576;6.036;2024-02-21T20:15:50;14.70;99.90
44763;DHT22;30483;49.576;6.036;2024-02-21T20:18:16;14.70;99.90
44763;DHT22;30483;49.576;6.036;2024-02-21T20:20:42;14.70;99.90
44763;DHT22;30483;49.576;6.036;2024-02-21T20:23:09;14.70;99.90
44763;DHT22;30483;49.576;6.036;2024-02-21T20:25:42;14.60;99.90
44763;DHT22;30483;49.576;6.036;2024-02-21T20:28:08;14.60;99.90
44763;DHT22;30483;49.576;6.036;2024-02-21T20:30:38;14.60;99.90
44763;DHT22;30483;49.576;6.036;2024-02-21T20:33:03;14.60;99.90